Time;durP1;ratioP1;P1;durP2;ratioP2;P2;SDS_P1;SDS_P2;PMS_P1;PMS_P2;Temp;Humidity;BMP_temperature;BMP_pressure;BME280_temperature;BME280_humidity;BME280_pressure;Samples;Min_cycle;Max_cycle;Signal;HPM_P1;HPM_P2
2022/03/06 00:01:01;;;;;;;23.27;16.53;;;;;;;1.43;72.10;102360.75;5053809;28;20499;-36
2022/03/06 00:03:27;;;;;;;23.65;15.57;;;;;;;1.43;72.33;102359.91;5052824;28;20813;-36
2022/03/06 00:05:52;;;;;;;21.67;16.00;;;;;;;1.32;72.46;102362.66;5052923;28;20028;-36
2022/03/06 00:08:18;;;;;;;22.63;16.23;;;;;;;1.39;72.43;102361.16;5052979;28;20317;-35
2022/03/06 00:10:43;;;;;;;22.47;16.93;;;;;;;1.27;72.21;102358.59;5053323;28;20033;-35
2022/03/06 00:13:09;;;;;;;23.87;16.10;;;;;;;1.33;72.40;102369.69;5052750;28;20647;-35
2022/03/06 00:15:34;;;;;;;21.63;16.00;;;;;;;1.18;72.11;102340.75;5053198;28;20032;-35
2022/03/06 00:17:59;;;;;;;21.57;16.33;;;;;;;1.29;72.17;102369.13;5051488;28;20298;-36
2022/03/06 00:20:25;;;;;;;22.63;16.90;;;;;;;1.14;72.47;102357.13;5052647;28;20031;-36
2022/03/06 00:22:50;;;;;;;22.17;15.85;;;;;;;1.23;73.40;102369.66;5052623;28;20114;-36
2022/03/06 00:25:16;;;;;;;24.93;16.07;;;;;;;1.15;73.18;102370.31;5053045;28;20091;-36
2022/03/06 00:27:41;;;;;;;24.87;15.90;;;;;;;0.93;72.53;102347.34;5052780;28;20143;-36
2022/03/06 00:30:08;;;;;;;23.83;15.77;;;;;;;1.13;72.95;102379.41;5053498;28;20033;-36
2022/03/06 00:32:33;;;;;;;20.60;14.80;;;;;;;1.17;72.35;102372.81;5052325;28;20057;-36
2022/03/06 00:34:59;;;;;;;20.43;14.80;;;;;;;1.13;72.69;102376.75;5053037;28;20085;-36
2022/03/06 00:37:24;;;;;;;22.88;15.25;;;;;;;1.15;72.80;102383.63;5052435;28;20029;-36
2022/03/06 00:39:50;;;;;;;26.60;16.60;;;;;;;1.10;72.81;102385.00;5052895;28;20093;-36
2022/03/06 00:42:15;;;;;;;24.50;16.17;;;;;;;1.11;72.46;102387.53;5052405;28;20060;-36
2022/03/06 00:44:40;;;;;;;21.07;15.03;;;;;;;1.10;74.05;102385.00;5052699;28;20022;-35
2022/03/06 00:47:06;;;;;;;20.37;15.57;;;;;;;1.09;73.19;102394.81;5052575;28;20037;-36
2022/03/06 00:49:32;;;;;;;23.43;15.53;;;;;;;0.99;73.29;102388.59;5053098;28;20028;-36
2022/03/06 00:51:58;;;;;;;20.60;15.27;;;;;;;0.96;73.25;102400.34;5052684;28;20271;-36
2022/03/06 00:54:24;;;;;;;21.20;14.93;;;;;;;0.95;73.68;102397.81;5055226;28;20032;-36
2022/03/06 00:56:49;;;;;;;20.37;15.23;;;;;;;1.01;73.31;102405.28;5056785;28;20036;-36
2022/03/06 00:59:14;;;;;;;24.83;16.97;;;;;;;0.91;73.88;102401.69;5056984;28;20726;-36
2022/03/06 01:01:40;;;;;;;21.27;15.73;;;;;;;0.85;73.92;102403.06;5056139;28;20111;-36
2022/03/06 01:04:06;;;;;;;20.50;15.02;;;;;;;0.81;74.35;102403.47;5056058;28;20449;-36
2022/03/06 01:06:31;;;;;;;22.63;15.67;;;;;;;0.76;74.20;102404.69;5056057;28;20146;-36
2022/03/06 01:08:57;;;;;;;21.70;14.93;;;;;;;0.71;74.45;102380.25;5056244;28;20151;-36
2022/03/06 01:11:22;;;;;;;23.08;15.73;;;;;;;0.75;74.58;102407.47;5056473;28;20493;-35
2022/03/06 01:13:48;;;;;;;22.10;16.15;;;;;;;0.70;74.34;102393.72;5056857;28;20056;-36
2022/03/06 01:16:13;;;;;;;21.73;15.37;;;;;;;0.69;75.31;102398.19;5056159;28;20063;-36
2022/03/06 01:18:39;;;;;;;20.73;15.07;;;;;;;0.75;75.32;102412.81;5055798;28;20039;-36
2022/03/06 01:21:04;;;;;;;23.03;16.07;;;;;;;0.71;75.25;102406.88;5056336;28;20112;-35
2022/03/06 01:23:30;;;;;;;22.17;15.18;;;;;;;0.64;75.61;102407.53;5055993;28;20096;-35
2022/03/06 01:25:55;;;;;;;24.15;15.38;;;;;;;0.69;75.82;102408.00;5056207;28;20434;-35
2022/03/06 01:28:20;;;;;;;22.53;14.97;;;;;;;0.69;75.37;102403.53;5055953;28;20021;-35
2022/03/06 01:30:46;;;;;;;22.33;16.40;;;;;;;0.61;75.95;102413.09;5056481;28;20025;-35
2022/03/06 01:33:11;;;;;;;21.83;16.03;;;;;;;0.56;76.42;102408.16;5055568;28;20059;-35
2022/03/06 01:35:37;;;;;;;21.63;15.40;;;;;;;0.60;75.94;102420.25;5056190;28;20041;-35
2022/03/06 01:38:02;;;;;;;22.77;15.97;;;;;;;0.57;76.54;102422.31;5055486;28;20029;-35
2022/03/06 01:40:27;;;;;;;24.40;17.13;;;;;;;0.53;77.27;102413.72;5055859;28;20025;-35
2022/03/06 01:42:53;;;;;;;20.90;14.57;;;;;;;0.55;77.15;102419.78;5055913;28;20381;-35
2022/03/06 01:45:23;;;;;;;24.53;16.80;;;;;;;0.39;77.37;102408.69;5055646;28;20025;-35
2022/03/06 01:47:53;;;;;;;20.85;16.10;;;;;;;0.51;77.19;102421.00;5055589;28;20102;-35
2022/03/06 01:50:22;;;;;;;23.00;16.90;;;;;;;0.44;77.69;102419.81;5055553;28;20021;-35
2022/03/06 01:52:50;;;;;;;23.95;15.38;;;;;;;0.43;77.31;102426.13;5055081;28;20021;-35
2022/03/06 01:55:16;;;;;;;21.10;14.63;;;;;;;0.48;77.16;102421.25;5055943;28;20025;-35
2022/03/06 01:57:44;;;;;;;21.15;15.88;;;;;;;0.46;76.95;102421.38;5055370;28;20064;-35
2022/03/06 02:00:16;;;;;;;23.92;15.93;;;;;;;0.47;76.86;102424.91;5055910;28;20104;-35
2022/03/06 02:02:42;;;;;;;20.02;14.18;;;;;;;0.46;76.88;102420.56;5055873;28;20054;-35
2022/03/06 02:05:11;;;;;;;21.77;14.88;;;;;;;0.33;77.57;102409.22;5055033;28;20029;-35
2022/03/06 02:07:36;;;;;;;20.60;15.07;;;;;;;0.34;77.14;102418.88;5054096;28;20485;-35
2022/03/06 02:10:04;;;;;;;22.88;14.93;;;;;;;0.28;76.91;102404.25;5055291;28;20040;-35
2022/03/06 02:12:31;;;;;;;23.15;15.93;;;;;;;0.33;77.79;102433.16;5054746;28;20059;-35
2022/03/06 02:14:58;;;;;;;20.75;15.18;;;;;;;0.29;77.98;102426.41;5055021;28;20025;-35
2022/03/06 02:17:25;;;;;;;21.58;15.10;;;;;;;0.30;77.70;102425.44;5054172;28;20493;-35
2022/03/06 02:19:54;;;;;;;21.02;14.10;;;;;;;0.27;77.62;102426.53;5055256;28;20433;-35
2022/03/06 02:22:22;;;;;;;22.10;14.30;;;;;;;0.23;77.96;102430.41;5054961;28;20033;-35
2022/03/06 02:24:47;;;;;;;19.58;14.55;;;;;;;0.20;77.21;102423.53;5055110;28;20476;-35
2022/03/06 02:27:13;;;;;;;19.87;14.33;;;;;;;0.30;77.55;102438.75;5054017;28;20029;-35
2022/03/06 02:29:40;;;;;;;19.08;14.32;;;;;;;0.19;77.61;102437.78;5054586;28;20025;-35
2022/03/06 02:32:08;;;;;;;19.35;14.80;;;;;;;0.09;77.99;102423.53;5055235;28;20021;-35
2022/03/06 02:34:34;;;;;;;20.80;15.05;;;;;;;0.06;78.00;102421.16;5055099;28;20497;-35
2022/03/06 02:36:59;;;;;;;21.20;14.70;;;;;;;0.20;78.77;102439.50;5055133;28;20036;-36
2022/03/06 02:39:25;;;;;;;18.77;14.63;;;;;;;0.16;78.77;102438.06;5054640;28;20483;-35
2022/03/06 02:41:50;;;;;;;22.17;15.07;;;;;;;0.04;78.55;102438.19;5054767;28;20124;-35
2022/03/06 02:44:16;;;;;;;24.37;16.80;;;;;;;-0.10;79.71;102447.25;5054491;28;20354;-35
2022/03/06 02:46:44;;;;;;;23.13;15.50;;;;;;;-0.18;79.93;102439.91;5054235;28;20055;-36
2022/03/06 02:49:10;;;;;;;20.70;14.85;;;;;;;-0.21;79.45;102445.47;5054559;28;20025;-36
2022/03/06 02:51:36;;;;;;;21.87;15.27;;;;;;;-0.22;80.24;102438.44;5054541;28;20075;-35
2022/03/06 02:54:01;;;;;;;20.27;15.35;;;;;;;-0.29;80.69;102440.75;5054209;28;20033;-36
2022/03/06 02:56:28;;;;;;;20.23;15.20;;;;;;;-0.22;80.16;102443.78;5053913;28;20045;-35
2022/03/06 02:58:53;;;;;;;23.90;16.05;;;;;;;-0.33;80.85;102449.94;5054390;28;20136;-35
2022/03/06 03:01:19;;;;;;;20.90;15.10;;;;;;;-0.32;80.54;102451.63;5054465;28;20473;-36
2022/03/06 03:03:44;;;;;;;20.53;15.27;;;;;;;-0.37;81.56;102452.97;5054079;28;20124;-35
2022/03/06 03:06:10;;;;;;;18.87;14.40;;;;;;;-0.38;80.99;102440.63;5054036;28;20313;-36
2022/03/06 03:08:35;;;;;;;21.80;15.17;;;;;;;-0.43;82.15;102454.28;5053707;28;20377;-35
2022/03/06 03:11:00;;;;;;;20.43;14.93;;;;;;;-0.50;81.66;102446.91;5052741;28;20295;-35
2022/03/06 03:13:25;;;;;;;19.43;14.13;;;;;;;-0.40;81.73;102463.81;5054279;28;20052;-36
2022/03/06 03:15:52;;;;;;;20.10;14.83;;;;;;;-0.48;82.02;102464.44;5053310;28;20025;-36
2022/03/06 03:18:18;;;;;;;20.55;14.50;;;;;;;-0.49;82.19;102453.91;5053760;28;20326;-35
2022/03/06 03:20:44;;;;;;;21.77;16.33;;;;;;;-0.61;81.90;102443.28;5053985;28;20033;-35
2022/03/06 03:23:09;;;;;;;19.65;14.32;;;;;;;-0.63;81.49;102433.75;5053477;28;20120;-35
2022/03/06 03:25:34;;;;;;;20.27;14.63;;;;;;;-0.54;82.01;102451.59;5054198;28;20453;-35
2022/03/06 03:27:59;;;;;;;21.97;14.90;;;;;;;-0.67;81.90;102430.47;5053864;28;20540;-35
2022/03/06 03:30:25;;;;;;;20.00;15.03;;;;;;;-0.57;82.29;102454.50;5054158;28;20078;-36
2022/03/06 03:32:50;;;;;;;20.07;14.10;;;;;;;-0.57;81.88;102452.69;5053345;28;20049;-35
2022/03/06 03:35:16;;;;;;;20.43;15.53;;;;;;;-0.57;82.39;102443.88;5053737;28;20033;-35
2022/03/06 03:37:41;;;;;;;21.43;14.80;;;;;;;-0.60;82.01;102457.41;5053450;28;20268;-35
2022/03/06 03:40:07;;;;;;;18.03;13.77;;;;;;;-0.54;81.96;102459.56;5053562;28;20425;-35
2022/03/06 03:42:33;;;;;;;17.98;13.75;;;;;;;-0.62;81.95;102452.22;5053404;28;20029;-35
2022/03/06 03:44:58;;;;;;;20.70;15.35;;;;;;;-0.73;82.66;102443.34;5053618;28;20087;-35
2022/03/06 03:47:24;;;;;;;19.90;14.23;;;;;;;-0.64;82.57;102456.78;5053070;28;20051;-35
2022/03/06 03:49:50;;;;;;;15.85;12.60;;;;;;;-0.65;82.33;102464.88;5053563;28;20056;-35
2022/03/06 03:52:15;;;;;;;26.80;15.65;;;;;;;-0.65;82.44;102471.03;5052863;28;20029;-36
2022/03/06 03:54:41;;;;;;;19.33;13.67;;;;;;;-0.80;82.08;102433.22;5052910;28;20036;-35
2022/03/06 03:57:07;;;;;;;17.57;13.70;;;;;;;-0.71;82.26;102468.00;5053124;28;20299;-35
2022/03/06 03:59:32;;;;;;;18.38;13.90;;;;;;;-0.72;83.07;102466.31;5053145;28;20036;-35
2022/03/06 04:01:58;;;;;;;18.43;13.70;;;;;;;-0.79;82.36;102472.09;5053081;28;20025;-35
2022/03/06 04:04:24;;;;;;;19.97;15.00;;;;;;;-1.04;82.53;102420.00;5053765;28;20037;-35
2022/03/06 04:06:50;;;;;;;19.75;13.35;;;;;;;-0.79;83.36;102465.94;5053328;28;20060;-35
2022/03/06 04:09:15;;;;;;;18.67;13.93;;;;;;;-0.79;83.08;102479.22;5053727;28;20056;-35
2022/03/06 04:11:40;;;;;;;18.50;13.70;;;;;;;-0.95;83.31;102450.31;5052893;28;20315;-35
2022/03/06 04:14:06;;;;;;;17.87;13.63;;;;;;;-0.77;82.78;102473.81;5052954;28;20457;-35
2022/03/06 04:16:31;;;;;;;16.23;12.70;;;;;;;-0.79;82.92;102490.69;5053022;28;20029;-35
2022/03/06 04:18:56;;;;;;;19.60;13.50;;;;;;;-0.80;82.55;102485.50;5052613;28;20099;-35
2022/03/06 04:21:22;;;;;;;17.40;13.13;;;;;;;-0.85;82.93;102477.88;5052618;28;20067;-36
2022/03/06 04:23:47;;;;;;;18.37;14.10;;;;;;;-0.81;82.67;102489.97;5053018;28;20060;-35
2022/03/06 04:26:13;;;;;;;18.87;14.00;;;;;;;-0.99;83.53;102469.25;5053377;28;20055;-35
2022/03/06 04:28:38;;;;;;;17.90;12.98;;;;;;;-1.05;84.24;102465.25;5052765;28;20020;-35
2022/03/06 04:31:03;;;;;;;18.07;15.10;;;;;;;-1.03;83.56;102484.56;5053150;28;20029;-35
2022/03/06 04:33:29;;;;;;;18.33;13.97;;;;;;;-0.87;84.05;102497.56;5053079;28;20056;-35
2022/03/06 04:35:54;;;;;;;17.73;13.37;;;;;;;-0.98;83.02;102487.72;5052463;28;20025;-35
2022/03/06 04:38:19;;;;;;;18.77;13.63;;;;;;;-0.89;83.11;102502.13;5052645;28;20044;-35
2022/03/06 04:40:46;;;;;;;19.37;13.67;;;;;;;-1.01;83.39;102495.94;5052662;28;20025;-35
2022/03/06 04:43:12;;;;;;;18.30;14.57;;;;;;;-1.16;84.56;102505.06;5052803;28;20028;-35
2022/03/06 04:45:37;;;;;;;18.17;13.02;;;;;;;-1.08;84.33;102507.97;5052621;28;20461;-35
2022/03/06 04:48:03;;;;;;;18.90;13.40;;;;;;;-1.09;83.41;102500.97;5052504;28;20040;-35
2022/03/06 04:50:29;;;;;;;18.85;12.77;;;;;;;-1.01;84.50;102516.34;5052724;28;20033;-35
2022/03/06 04:52:54;;;;;;;16.70;12.15;;;;;;;-1.06;83.63;102522.00;5053092;28;20434;-35
2022/03/06 04:55:19;;;;;;;16.73;12.67;;;;;;;-1.29;83.77;102483.88;5052533;28;20120;-35
2022/03/06 04:57:46;;;;;;;16.47;12.77;;;;;;;-1.06;83.71;102525.50;5052391;28;20029;-35
2022/03/06 05:00:13;;;;;;;16.20;12.93;;;;;;;-1.08;83.33;102531.84;5052871;28;20036;-35
2022/03/06 05:02:39;;;;;;;15.13;12.80;;;;;;;-1.05;83.70;102524.53;5052008;28;20035;-35
2022/03/06 05:05:04;;;;;;;18.23;14.57;;;;;;;-1.02;83.05;102533.22;5052376;28;20025;-35
2022/03/06 05:07:30;;;;;;;19.85;14.48;;;;;;;-1.19;84.63;102534.47;5052022;28;20411;-35
2022/03/06 05:09:55;;;;;;;18.73;13.53;;;;;;;-1.26;84.63;102535.91;5052580;28;20025;-35
2022/03/06 05:12:20;;;;;;;17.20;12.77;;;;;;;-1.30;84.28;102530.78;5052412;28;20029;-36
2022/03/06 05:14:46;;;;;;;16.93;13.30;;;;;;;-1.33;85.01;102536.31;5052021;28;20033;-45
2022/03/06 05:17:11;;;;;;;18.53;14.50;;;;;;;-1.23;84.81;102546.25;5052343;28;20064;-35
2022/03/06 05:19:36;;;;;;;18.57;14.10;;;;;;;-1.37;84.96;102544.63;5052012;28;20021;-35
2022/03/06 05:22:02;;;;;;;16.77;13.30;;;;;;;-1.30;84.93;102549.38;5052184;28;20457;-35
2022/03/06 05:24:28;;;;;;;16.67;13.13;;;;;;;-1.41;84.70;102528.09;5052632;28;20048;-35
2022/03/06 05:26:53;;;;;;;16.42;13.00;;;;;;;-1.24;84.67;102547.22;5052703;28;20025;-35
2022/03/06 05:29:19;;;;;;;17.00;13.53;;;;;;;-1.31;84.89;102550.34;5052380;28;20033;-35
2022/03/06 05:31:44;;;;;;;19.70;13.75;;;;;;;-1.44;85.01;102538.91;5052074;28;20025;-35
2022/03/06 05:34:09;;;;;;;16.40;12.47;;;;;;;-1.32;85.04;102550.44;5052698;28;20053;-35
2022/03/06 05:36:35;;;;;;;15.87;12.80;;;;;;;-1.33;84.11;102551.41;5052783;28;20033;-35
2022/03/06 05:39:00;;;;;;;16.08;13.20;;;;;;;-1.54;84.70;102535.25;5052240;28;20025;-35
2022/03/06 05:41:26;;;;;;;15.60;13.30;;;;;;;-1.60;84.91;102533.88;5056002;28;20037;-35
2022/03/06 05:43:51;;;;;;;19.80;14.37;;;;;;;-1.48;84.79;102539.25;5055919;28;20035;-35
2022/03/06 05:46:16;;;;;;;15.93;12.57;;;;;;;-1.34;84.55;102562.97;5055944;28;20047;-35
2022/03/06 05:48:42;;;;;;;16.13;12.77;;;;;;;-1.32;84.47;102569.00;5056034;28;20028;-35
2022/03/06 05:51:07;;;;;;;17.60;13.37;;;;;;;-1.33;84.48;102564.66;5055609;28;20028;-35
2022/03/06 05:53:33;;;;;;;16.77;12.70;;;;;;;-1.34;84.01;102561.16;5055812;28;20063;-35
2022/03/06 05:55:59;;;;;;;15.18;12.73;;;;;;;-1.39;84.72;102562.47;5055750;28;20082;-35
2022/03/06 05:58:24;;;;;;;14.32;12.27;;;;;;;-1.39;83.86;102555.34;5055427;28;20116;-35
2022/03/06 06:00:49;;;;;;;17.93;13.93;;;;;;;-1.36;84.85;102567.56;5054798;28;20487;-35
2022/03/06 06:03:15;;;;;;;17.73;13.10;;;;;;;-1.42;84.26;102573.28;5055855;28;20432;-35
2022/03/06 06:05:41;;;;;;;;;;;;;;;-1.37;84.04;102579.13;5055704;28;20473;-35
2022/03/06 06:08:06;;;;;;;17.65;13.15;;;;;;;-1.50;84.67;102581.81;5054109;28;19916;-35
2022/03/06 06:10:31;;;;;;;17.57;13.10;;;;;;;-1.49;85.28;102588.81;5054020;28;20477;-35
2022/03/06 06:12:57;;;;;;;18.57;14.50;;;;;;;-1.57;84.92;102580.53;5055015;28;20029;-35
2022/03/06 06:15:22;;;;;;;17.77;12.03;;;;;;;-1.64;84.64;102572.19;5055138;28;20192;-35
2022/03/06 06:17:47;;;;;;;19.07;13.67;;;;;;;-1.59;85.47;102588.63;5055022;28;20064;-35
2022/03/06 06:20:13;;;;;;;17.70;14.17;;;;;;;-1.73;85.75;102575.50;5055732;28;20080;-35
2022/03/06 06:22:38;;;;;;;16.20;12.40;;;;;;;-1.50;86.03;102592.44;5054903;28;20056;-35
2022/03/06 06:25:04;;;;;;;18.67;13.77;;;;;;;-1.59;85.76;102593.94;5055375;28;20028;-35
2022/03/06 06:27:29;;;;;;;18.88;12.88;;;;;;;-1.52;85.03;102601.44;5055155;28;20075;-35
2022/03/06 06:29:55;;;;;;;14.30;11.83;;;;;;;-1.51;85.30;102601.34;5054814;28;20476;-35
2022/03/06 06:32:21;;;;;;;18.27;14.30;;;;;;;-1.65;85.38;102583.75;5054440;28;20057;-35
2022/03/06 06:34:47;;;;;;;15.68;13.32;;;;;;;-1.59;85.79;102599.25;5054711;28;20045;-35
2022/03/06 06:37:15;;;;;;;17.13;13.80;;;;;;;-1.46;85.08;102596.56;5054805;28;20033;-35
2022/03/06 06:39:41;;;;;;;14.43;11.05;;;;;;;-1.41;85.05;102598.91;5054749;28;20096;-35
2022/03/06 06:42:07;;;;;;;15.90;13.77;;;;;;;-1.50;84.82;102600.41;5054693;28;20417;-35
2022/03/06 06:44:33;;;;;;;15.25;12.60;;;;;;;-1.47;84.52;102608.13;5054981;28;20024;-35
2022/03/06 06:47:00;;;;;;;15.40;13.07;;;;;;;-1.57;84.76;102599.13;5054096;28;20032;-35
2022/03/06 06:49:25;;;;;;;19.38;13.75;;;;;;;-1.47;84.98;102621.38;5054448;28;20400;-35
2022/03/06 06:51:51;;;;;;;16.13;13.07;;;;;;;-1.62;84.49;102585.34;5054022;28;20044;-35
2022/03/06 06:54:16;;;;;;;16.45;13.60;;;;;;;-1.45;84.71;102626.59;5054286;28;20323;-35
2022/03/06 06:56:42;;;;;;;15.43;12.97;;;;;;;-1.46;84.94;102614.31;5054265;28;20524;-35
2022/03/06 06:59:08;;;;;;;16.20;13.38;;;;;;;-1.39;85.10;102624.34;5053954;28;20103;-35
2022/03/06 07:01:34;;;;;;;14.32;12.43;;;;;;;-1.29;84.08;102635.16;5054683;28;20442;-35
2022/03/06 07:03:59;;;;;;;15.33;12.87;;;;;;;-1.23;84.01;102634.72;5054422;28;20481;-35
2022/03/06 07:06:25;;;;;;;14.03;12.53;;;;;;;-1.23;84.00;102647.97;5054878;28;20029;-35
2022/03/06 07:08:51;;;;;;;15.70;12.80;;;;;;;-1.20;84.10;102641.63;5054205;28;20040;-35
2022/03/06 07:11:16;;;;;;;15.23;13.10;;;;;;;-1.12;84.08;102641.94;5054703;28;20028;-35
2022/03/06 07:13:41;;;;;;;14.33;12.23;;;;;;;-1.01;84.08;102646.47;5053740;28;20101;-35
2022/03/06 07:16:07;;;;;;;13.87;11.73;;;;;;;-0.98;83.01;102640.91;5054252;28;20107;-35
2022/03/06 07:18:32;;;;;;;14.60;12.07;;;;;;;-1.06;83.25;102606.97;5054031;28;20025;-35
2022/03/06 07:20:57;;;;;;;13.87;11.43;;;;;;;-0.80;83.56;102651.03;5054248;28;20032;-35
2022/03/06 07:23:23;;;;;;;13.50;11.77;;;;;;;-0.72;82.62;102652.28;5054093;28;20119;-35
2022/03/06 07:25:48;;;;;;;13.83;11.83;;;;;;;-0.71;82.36;102646.00;5054098;28;20024;-35
2022/03/06 07:28:14;;;;;;;15.30;12.20;;;;;;;-0.73;81.67;102662.06;5054415;28;20039;-35
2022/03/06 07:30:39;;;;;;;16.90;12.68;;;;;;;-0.66;82.64;102657.16;5054336;28;20051;-35
2022/03/06 07:33:05;;;;;;;13.93;12.07;;;;;;;-0.67;82.22;102668.75;5053559;28;20102;-35
2022/03/06 07:35:31;;;;;;;16.05;12.52;;;;;;;-0.59;82.87;102666.34;5053617;28;20021;-35
2022/03/06 07:37:56;;;;;;;14.25;12.00;;;;;;;-0.54;81.64;102672.16;5053761;28;20033;-35
2022/03/06 07:40:23;;;;;;;13.63;11.97;;;;;;;-0.44;82.84;102682.97;5053440;28;20071;-35
2022/03/06 07:42:48;;;;;;;;;;;;;;;-0.36;82.04;102675.28;5053631;28;20033;-35
2022/03/06 07:45:15;;;;;;;15.18;12.43;;;;;;;-0.39;82.17;102684.34;5054039;28;19959;-35
2022/03/06 07:47:40;;;;;;;15.75;12.38;;;;;;;-0.37;80.96;102681.56;5053397;28;20560;-35
2022/03/06 07:50:08;;;;;;;14.45;11.52;;;;;;;-0.22;81.31;102682.22;5053456;28;20024;-35
2022/03/06 07:52:35;;;;;;;13.98;11.48;;;;;;;-0.21;81.51;102674.13;5051998;28;20064;-35
2022/03/06 07:55:00;;;;;;;13.55;12.05;;;;;;;-0.16;80.94;102689.72;5053792;28;20052;-35
2022/03/06 07:57:26;;;;;;;13.45;11.05;;;;;;;-0.29;81.03;102663.22;5052884;28;20055;-35
2022/03/06 07:59:51;;;;;;;15.87;12.50;;;;;;;-0.09;81.21;102693.63;5053499;28;20021;-35
2022/03/06 08:02:16;;;;;;;13.37;11.33;;;;;;;0.01;80.83;102688.47;5051453;28;20047;-35
2022/03/06 08:04:42;;;;;;;13.83;12.20;;;;;;;-0.04;80.14;102694.97;5053157;28;20392;-35
2022/03/06 08:07:07;;;;;;;13.70;11.83;;;;;;;-0.01;80.72;102696.53;5053313;28;20033;-35
2022/03/06 08:09:33;;;;;;;16.47;12.40;;;;;;;0.13;81.00;102695.50;5053802;28;20275;-35
2022/03/06 08:12:00;;;;;;;12.90;11.32;;;;;;;0.21;79.77;102701.94;5052867;28;20036;-35
2022/03/06 08:14:26;;;;;;;14.07;11.60;;;;;;;0.25;80.03;102698.06;5053596;28;20446;-35
2022/03/06 08:16:51;;;;;;;;;;;;;;;0.44;79.09;102713.47;5053317;28;20078;-35
2022/03/06 08:19:17;;;;;;;13.93;11.03;;;;;;;0.47;78.76;102715.88;5053050;28;20011;-35
2022/03/06 08:21:42;;;;;;;12.82;11.38;;;;;;;0.48;78.72;102722.03;5053645;28;20088;-35
2022/03/06 08:24:08;;;;;;;12.87;10.83;;;;;;;0.57;78.93;102718.66;5053358;28;20377;-35
2022/03/06 08:26:33;;;;;;;14.10;11.60;;;;;;;0.61;78.52;102720.13;5053387;28;20033;-35
2022/03/06 08:28:59;;;;;;;12.70;11.10;;;;;;;0.75;79.04;102716.38;5053074;28;20275;-35
2022/03/06 08:31:24;;;;;;;13.77;9.80;;;;;;;0.86;78.24;102719.03;5052645;28;20079;-35
2022/03/06 08:33:52;;;;;;;12.80;11.37;;;;;;;0.89;77.41;102720.63;5053184;28;20060;-35
2022/03/06 08:36:17;;;;;;;13.80;10.65;;;;;;;0.91;77.28;102721.34;5053097;28;20039;-36
2022/03/06 08:38:42;;;;;;;12.37;10.67;;;;;;;0.89;77.86;102712.63;5053062;28;20049;-35
2022/03/06 08:41:08;;;;;;;12.17;10.73;;;;;;;0.97;77.08;102694.19;5053119;28;20476;-36
2022/03/06 08:43:33;;;;;;;12.87;10.67;;;;;;;1.16;77.12;102721.06;5052846;28;20457;-36
2022/03/06 08:45:58;;;;;;;12.50;9.60;;;;;;;1.39;76.65;102734.38;5053431;28;20025;-35
2022/03/06 08:48:24;;;;;;;15.20;11.37;;;;;;;1.27;75.78;102702.41;5052476;28;20079;-36
2022/03/06 08:50:49;;;;;;;12.90;10.90;;;;;;;1.41;76.52;102717.25;5053408;28;20029;-36
2022/03/06 08:53:17;;;;;;;13.27;11.20;;;;;;;1.51;75.56;102733.34;5052764;28;20074;-36
2022/03/06 08:55:43;;;;;;;12.73;10.45;;;;;;;1.51;76.17;102720.88;5052829;28;20047;-36
2022/03/06 08:58:08;;;;;;;12.03;10.73;;;;;;;1.57;75.75;102730.19;5052637;28;20059;-36
2022/03/06 09:00:34;;;;;;;13.27;9.70;;;;;;;1.55;75.99;102724.13;5053047;28;20031;-36
2022/03/06 09:02:59;;;;;;;12.15;10.48;;;;;;;1.33;74.87;102719.72;5052636;28;20036;-35
2022/03/06 09:05:24;;;;;;;13.47;10.53;;;;;;;1.62;76.11;102729.81;5052696;28;20029;-36
2022/03/06 09:07:50;;;;;;;13.63;10.20;;;;;;;1.71;76.07;102729.06;5051234;28;20041;-36
2022/03/06 09:10:15;;;;;;;11.53;9.87;;;;;;;1.86;75.90;102734.94;5052586;28;20139;-36
2022/03/06 09:12:40;;;;;;;11.13;9.70;;;;;;;1.69;75.25;102718.50;5052506;28;20029;-36
2022/03/06 09:15:08;;;;;;;12.47;10.43;;;;;;;1.79;75.19;102729.25;5055304;28;20440;-35
2022/03/06 09:17:33;;;;;;;11.82;9.75;;;;;;;1.87;74.47;102731.31;5056363;28;20425;-36
2022/03/06 09:19:58;;;;;;;11.27;10.07;;;;;;;2.01;75.37;102739.00;5056425;28;20055;-36
2022/03/06 09:22:24;;;;;;;15.07;10.13;;;;;;;2.13;75.17;102735.28;5056768;28;20037;-36
2022/03/06 09:24:49;;;;;;;9.53;8.53;;;;;;;2.22;74.67;102725.66;5056373;28;20330;-36
2022/03/06 09:27:14;;;;;;;10.97;9.63;;;;;;;2.32;73.84;102730.09;5056270;28;20111;-36
2022/03/06 09:29:40;;;;;;;9.87;8.87;;;;;;;2.34;73.56;102724.59;5056857;28;20029;-36
2022/03/06 09:32:06;;;;;;;10.77;9.67;;;;;;;2.31;73.67;102735.56;5056041;28;20029;-36
2022/03/06 09:34:31;;;;;;;10.53;9.43;;;;;;;2.30;72.87;102725.88;5057043;28;20279;-36
2022/03/06 09:36:56;;;;;;;10.43;9.13;;;;;;;2.46;73.08;102733.41;5056286;28;20048;-36
2022/03/06 09:39:22;;;;;;;12.20;9.43;;;;;;;2.48;72.60;102720.75;5056014;28;20047;-36
2022/03/06 09:41:49;;;;;;;10.40;8.53;;;;;;;2.71;73.22;102738.31;5055677;28;20499;-36
2022/03/06 09:44:14;;;;;;;10.25;9.18;;;;;;;2.80;72.15;102734.84;5056043;28;20436;-36
2022/03/06 09:46:40;;;;;;;10.73;8.90;;;;;;;2.86;71.26;102725.44;5055789;28;20024;-36
2022/03/06 09:49:07;;;;;;;10.43;8.65;;;;;;;2.95;70.15;102734.47;5055911;28;20029;-36
2022/03/06 09:51:40;;;;;;;9.68;8.32;;;;;;;2.96;71.42;102720.13;5055418;28;20040;-36
2022/03/06 09:54:10;;;;;;;13.93;8.55;;;;;;;3.17;71.22;102728.91;5056158;28;20469;-36
2022/03/06 09:56:35;;;;;;;12.40;9.60;;;;;;;3.16;70.08;102724.56;5055361;28;20029;-36
2022/03/06 09:59:02;;;;;;;11.50;8.32;;;;;;;3.32;69.39;102732.09;5056190;28;20044;-36
2022/03/06 10:01:28;;;;;;;11.50;8.63;;;;;;;3.36;69.79;102723.63;5055868;28;20025;-36
2022/03/06 10:03:53;;;;;;;10.23;9.15;;;;;;;3.25;69.44;102717.56;5055722;28;20158;-36
2022/03/06 10:06:18;;;;;;;10.20;8.30;;;;;;;3.29;69.47;102706.44;5055289;28;20053;-36
2022/03/06 10:08:44;;;;;;;9.60;7.80;;;;;;;3.44;69.22;102730.13;5055384;28;20032;-37
2022/03/06 10:11:11;;;;;;;9.40;8.33;;;;;;;3.56;68.63;102724.53;5055680;28;20102;-36
2022/03/06 10:13:44;;;;;;;8.93;7.78;;;;;;;3.36;68.60;102706.72;5054948;28;20052;-36
2022/03/06 10:16:20;;;;;;;8.18;7.38;;;;;;;3.64;69.18;102728.31;5055491;28;20029;-36
2022/03/06 10:18:51;;;;;;;9.27;8.10;;;;;;;3.73;68.58;102735.50;5055762;28;20032;-36
2022/03/06 10:21:24;;;;;;;11.18;7.30;;;;;;;3.84;67.72;102725.50;5055690;28;20017;-36
2022/03/06 10:23:57;;;;;;;8.63;7.18;;;;;;;3.87;67.59;102721.72;5054824;28;20071;-36
2022/03/06 10:26:25;;;;;;;8.68;7.35;;;;;;;3.87;67.38;102716.34;5054808;28;20043;-36
2022/03/06 10:29:02;;;;;;;8.93;7.10;;;;;;;4.05;66.65;102719.16;5055043;28;20032;-36
2022/03/06 10:31:33;;;;;;;7.78;6.97;;;;;;;4.06;65.20;102720.88;5053635;28;20039;-36
2022/03/06 10:34:02;;;;;;;8.55;7.40;;;;;;;4.18;65.44;102726.91;5055118;28;20075;-36
2022/03/06 10:36:38;;;;;;;7.93;6.78;;;;;;;4.33;65.38;102728.97;5055376;28;20029;-36
2022/03/06 10:39:10;;;;;;;7.88;6.72;;;;;;;4.48;64.74;102737.41;5054923;28;20029;-36
2022/03/06 10:41:38;;;;;;;8.90;7.30;;;;;;;4.69;64.31;102737.22;5055101;28;20025;-36
2022/03/06 10:44:05;;;;;;;8.43;6.82;;;;;;;4.73;62.97;102733.25;5054381;28;20032;-36
2022/03/06 10:46:33;;;;;;;9.07;7.22;;;;;;;4.61;62.89;102731.75;5054922;28;20082;-36
2022/03/06 10:49:02;;;;;;;8.27;7.05;;;;;;;4.63;62.49;102724.38;5054580;28;20519;-36
2022/03/06 10:51:29;;;;;;;7.40;6.60;;;;;;;4.65;61.52;102720.59;5054151;28;20036;-36
2022/03/06 10:53:57;;;;;;;7.63;6.32;;;;;;;4.76;62.37;102719.56;5053198;28;20155;-36
2022/03/06 10:56:23;;;;;;;7.30;6.50;;;;;;;4.89;62.02;102724.59;5054709;28;20033;-36
2022/03/06 10:58:49;;;;;;;8.35;6.32;;;;;;;4.86;60.68;102725.72;5054177;28;20040;-36
2022/03/06 11:01:15;;;;;;;8.63;5.50;;;;;;;4.91;60.31;102720.75;5054679;28;20029;-36
2022/03/06 11:03:41;;;;;;;8.43;6.63;;;;;;;5.01;60.43;102728.75;5054207;28;20040;-37
2022/03/06 11:06:09;;;;;;;7.85;6.18;;;;;;;5.02;60.02;102725.06;5054785;28;20036;-36
2022/03/06 11:08:35;;;;;;;9.48;6.80;;;;;;;4.95;60.59;102712.44;5054999;28;20047;-36
2022/03/06 11:11:07;;;;;;;7.90;6.82;;;;;;;5.06;58.33;102729.16;5054865;28;20021;-36